BENVENUTI AL 154° GRUPPO VIRTUALE

Please enter the email address for your account. A verification code will be sent to you. Once you have received the verification code, you will be able to choose a new password for your account.

METAR & TAF

[Source: ADDS]
METAR
LIPL 242155Z 33002KT 9999 -RA BKN045 15/15 Q1014 RMK BKN VIS MIN 9999 WIND THR31 35002KT WIND THR13 33003KT BLU =
LIPL 242000Z 2421/2506 05010KT 9999 FEW030 BKN060 TEMPO 2421/2503 5000 RA BKN030 BECMG 2423/2501 27010KT
TAF
LIPL 242000Z 2421/2506 05010KT 9999 FEW030 BKN060 TEMPO 2421/2503 5000 RA BKN030 BECMG 2423/2501 27010KT =

Notice: Undefined index: sun in /web/htdocs/www.154gruppovirtuale.it/home/modules/mod_wx/tmpl/default.php on line 13

Official Tools

CombatFlite Logo  
 
   

Network

Simulation Platform